Skip Navigation Links
NOAA logo - Click to go to the NOAA homepage
NOAA's National Weather Service
Alaska Aviation Weather Unit
  NWS logo - Click to go to the NWS homepage
Left Navbar Graphic     19 AKDT = 03 GMT

   
NOAA is celebrating 200 years of science, service, and stewardship. Visit the NOAA 200th celebration Web site to learn more.
USA.gov is the U.S. Government's official Web portal to all Federal, state and local government Web resources and services.
Facebook
NWS on Facebook

Important Change Regarding the AAWU Web Presence

 

Over the last several months, the AAWU has been working to navigate its webpages to a nationally supported server. Security, as well as other needs, have necessitated the change.  In the process, we have made an effort to enhance the functionality of our website, as well as some of our products. As of June 20, 2017, aawu.arh.noaa.gov will be discontinued. The new AAWU web address is weather.gov/aawu. It is now live and will run in-parallel with the old site until it is discontinued. Please send any feedback or questions regarding the new webpages to nws.ar.aawu.webauthors@noaa.gov.  Thank you for your patience during this time of transition.
AAWU Home :: Display TAF Add Bookmark
METAR PANV 242116Z AUTO 23013G19KT 10SM FEW030 SCT040 OVC050 05/01
 A2962 RMK AO1=

METAR PANV 242136Z AUTO 21016G22KT 10SM SCT046 BKN050 BKN060 06/00 A2962
     RMK AO1=

METAR PANV 242156Z AUTO 23010G19KT 10SM FEW028 SCT035 BKN045 06/M01
 A2962 RMK AO1=

METAR PANV 242216Z AUTO 22012G18KT 180V260 10SM BKN032 BKN042 OVC048
     06/M01 A2962 RMK AO1=

METAR PANV 242236Z AUTO 23013G20KT 10SM FEW029 SCT034 BKN042 07/M02
     A2963 RMK AO1=

METAR PANV 242256Z AUTO 21010G20KT 190V250 10SM SCT032 SCT038 BKN044
     06/M02 A2965 RMK AO1=

METAR PANV 242316Z AUTO 20011G20KT 10SM FEW023 SCT048 BKN055 06/M01
     A2965 RMK AO1=

METAR PANV 242336Z AUTO 21012G17KT 10SM FEW050 FEW070 BKN095 07/M02
     A2964 RMK AO1=

METAR PANV 250016Z AUTO 22013G22KT 10SM FEW033 SCT038 BKN048 07/M01
     A2965 RMK AO1=

METAR PANV 250036Z AUTO 22012G19KT 10SM FEW031 SCT038 BKN060 06/M01
     A2965 RMK AO1=

METAR PANV 250056Z AUTO 22009G17KT 10SM FEW031 FEW043 SCT060 08/M01
     A2965 RMK AO1=

METAR PANV 250116Z AUTO 21015G21KT 10SM SCT041 BKN050 08/M03 A2965 RMK
     AO1=

METAR PANV 250136Z AUTO 20017G25KT 10SM BKN042 BKN049 OVC050 08/M03
 A2966 RMK AO1=

METAR PANV 250156Z AUTO 19015G20KT 10SM FEW042 BKN050 06/M01 A2967 RMK
     AO1=

METAR PANV 250216Z AUTO 20010G16KT 170V230 10SM BKN050 06/M01 A2967 RMK
     AO1=

METAR PANV 250236Z AUTO 19009G16KT 10SM FEW040 BKN050 BKN060 06/M01
     A2968 RMK AO1=

METAR PANV 250256Z AUTO 26006G16KT 7SM BKN020 BKN029 OVC050 04/M02
 A2969 RMK AO1=


NOAA's National Weather Service
Alaska Aviation Weather Unit
6930 Sand Lake Road
Anchorage, AK 99502-1845
Disclaimer
Credits
Glossary
Privacy Policy
About Us
Career Opportunities
Contact AAWU Internet Services Site last modified: April, 17th 2012